sensor_id;sensor_type;location;lat;lon;timestamp;temperature;humidity
14409;DHT22;7289;50.706;4.992;2023-07-13T00:01:14;15.80;96.00
14409;DHT22;7289;50.706;4.992;2023-07-13T00:03:44;15.80;96.10
14409;DHT22;7289;50.706;4.992;2023-07-13T00:06:13;15.90;96.20
14409;DHT22;7289;50.706;4.992;2023-07-13T00:08:41;15.80;96.20
14409;DHT22;7289;50.706;4.992;2023-07-13T00:11:10;15.80;96.20
14409;DHT22;7289;50.706;4.992;2023-07-13T00:13:38;15.70;96.20
14409;DHT22;7289;50.706;4.992;2023-07-13T00:16:08;15.80;96.20
14409;DHT22;7289;50.706;4.992;2023-07-13T00:18:37;15.80;96.40
14409;DHT22;7289;50.706;4.992;2023-07-13T00:21:07;15.80;96.30
14409;DHT22;7289;50.706;4.992;2023-07-13T00:23:37;15.70;96.30
14409;DHT22;7289;50.706;4.992;2023-07-13T00:26:08;15.70;96.40
14409;DHT22;7289;50.706;4.992;2023-07-13T00:28:38;15.70;96.50
14409;DHT22;7289;50.706;4.992;2023-07-13T00:31:10;15.70;96.60
14409;DHT22;7289;50.706;4.992;2023-07-13T00:33:39;15.70;96.60
14409;DHT22;7289;50.706;4.992;2023-07-13T00:36:08;15.70;96.60
14409;DHT22;7289;50.706;4.992;2023-07-13T00:38:37;15.70;96.60
14409;DHT22;7289;50.706;4.992;2023-07-13T00:41:07;15.60;96.70
14409;DHT22;7289;50.706;4.992;2023-07-13T00:43:35;15.60;96.90
14409;DHT22;7289;50.706;4.992;2023-07-13T00:46:28;15.60;96.90
14409;DHT22;7289;50.706;4.992;2023-07-13T00:49:00;15.60;97.10
14409;DHT22;7289;50.706;4.992;2023-07-13T00:51:35;15.50;97.20
14409;DHT22;7289;50.706;4.992;2023-07-13T00:54:09;15.50;97.40
14409;DHT22;7289;50.706;4.992;2023-07-13T00:56:38;15.40;97.70
14409;DHT22;7289;50.706;4.992;2023-07-13T00:59:08;15.30;98.00
14409;DHT22;7289;50.706;4.992;2023-07-13T01:01:39;15.30;98.20
14409;DHT22;7289;50.706;4.992;2023-07-13T01:04:07;15.40;98.20
14409;DHT22;7289;50.706;4.992;2023-07-13T01:06:38;15.40;98.50
14409;DHT22;7289;50.706;4.992;2023-07-13T01:09:08;15.40;98.50
14409;DHT22;7289;50.706;4.992;2023-07-13T01:11:37;15.40;98.60
14409;DHT22;7289;50.706;4.992;2023-07-13T01:14:05;15.30;98.90
14409;DHT22;7289;50.706;4.992;2023-07-13T01:16:36;15.30;99.00
14409;DHT22;7289;50.706;4.992;2023-07-13T01:19:15;15.30;99.20
14409;DHT22;7289;50.706;4.992;2023-07-13T01:21:50;15.30;99.40
14409;DHT22;7289;50.706;4.992;2023-07-13T01:24:18;15.30;99.60
14409;DHT22;7289;50.706;4.992;2023-07-13T01:26:49;15.30;99.70
14409;DHT22;7289;50.706;4.992;2023-07-13T01:29:17;15.20;99.70
14409;DHT22;7289;50.706;4.992;2023-07-13T01:31:45;15.20;99.90
14409;DHT22;7289;50.706;4.992;2023-07-13T01:34:14;15.20;99.90
14409;DHT22;7289;50.706;4.992;2023-07-13T01:36:43;15.20;99.90
14409;DHT22;7289;50.706;4.992;2023-07-13T01:39:14;15.30;99.90
14409;DHT22;7289;50.706;4.992;2023-07-13T01:41:44;15.20;99.90
14409;DHT22;7289;50.706;4.992;2023-07-13T01:44:12;15.20;99.90
14409;DHT22;7289;50.706;4.992;2023-07-13T01:46:41;15.30;99.90
14409;DHT22;7289;50.706;4.992;2023-07-13T01:49:10;15.20;99.90
14409;DHT22;7289;50.706;4.992;2023-07-13T01:51:39;15.20;99.90
14409;DHT22;7289;50.706;4.992;2023-07-13T01:54:07;15.20;99.90
14409;DHT22;7289;50.706;4.992;2023-07-13T01:56:37;15.20;99.90
14409;DHT22;7289;50.706;4.992;2023-07-13T01:59:06;15.10;99.90
14409;DHT22;7289;50.706;4.992;2023-07-13T02:01:37;15.10;99.90
14409;DHT22;7289;50.706;4.992;2023-07-13T02:04:05;15.10;99.90
14409;DHT22;7289;50.706;4.992;2023-07-13T02:06:34;15.20;99.90
14409;DHT22;7289;50.706;4.992;2023-07-13T02:09:02;15.10;99.90
14409;DHT22;7289;50.706;4.992;2023-07-13T02:11:32;15.10;99.90
14409;DHT22;7289;50.706;4.992;2023-07-13T02:14:03;15.10;99.90
14409;DHT22;7289;50.706;4.992;2023-07-13T02:16:31;15.10;99.90
14409;DHT22;7289;50.706;4.992;2023-07-13T02:19:00;15.00;99.90
14409;DHT22;7289;50.706;4.992;2023-07-13T02:21:29;15.00;99.90
14409;DHT22;7289;50.706;4.992;2023-07-13T02:23:57;15.00;99.90
14409;DHT22;7289;50.706;4.992;2023-07-13T02:26:27;14.90;99.90
14409;DHT22;7289;50.706;4.992;2023-07-13T02:28:55;14.90;99.90
14409;DHT22;7289;50.706;4.992;2023-07-13T02:31:25;14.80;99.90
14409;DHT22;7289;50.706;4.992;2023-07-13T02:33:53;14.80;99.90
14409;DHT22;7289;50.706;4.992;2023-07-13T02:36:22;14.80;99.90
14409;DHT22;7289;50.706;4.992;2023-07-13T02:38:51;14.80;99.90
14409;DHT22;7289;50.706;4.992;2023-07-13T02:41:20;14.80;99.90
14409;DHT22;7289;50.706;4.992;2023-07-13T02:43:50;14.80;99.90
14409;DHT22;7289;50.706;4.992;2023-07-13T02:46:20;14.70;99.90
14409;DHT22;7289;50.706;4.992;2023-07-13T02:48:50;14.80;99.90
14409;DHT22;7289;50.706;4.992;2023-07-13T02:51:20;14.80;99.90
14409;DHT22;7289;50.706;4.992;2023-07-13T02:53:49;14.80;99.90
14409;DHT22;7289;50.706;4.992;2023-07-13T02:56:19;14.80;99.90
14409;DHT22;7289;50.706;4.992;2023-07-13T02:58:47;14.80;99.90
14409;DHT22;7289;50.706;4.992;2023-07-13T03:01:16;14.90;99.90
14409;DHT22;7289;50.706;4.992;2023-07-13T03:03:46;14.90;99.90
14409;DHT22;7289;50.706;4.992;2023-07-13T03:06:17;14.90;99.90
14409;DHT22;7289;50.706;4.992;2023-07-13T03:08:49;14.90;99.90
14409;DHT22;7289;50.706;4.992;2023-07-13T03:11:19;14.90;99.90
14409;DHT22;7289;50.706;4.992;2023-07-13T03:13:55;14.90;99.90
14409;DHT22;7289;50.706;4.992;2023-07-13T03:16:25;14.90;99.90
14409;DHT22;7289;50.706;4.992;2023-07-13T03:18:54;14.80;99.90
14409;DHT22;7289;50.706;4.992;2023-07-13T03:21:24;14.80;99.90
14409;DHT22;7289;50.706;4.992;2023-07-13T03:23:52;14.80;99.90
14409;DHT22;7289;50.706;4.992;2023-07-13T03:26:20;14.70;99.90
14409;DHT22;7289;50.706;4.992;2023-07-13T03:28:49;14.60;99.90
14409;DHT22;7289;50.706;4.992;2023-07-13T03:31:24;14.60;99.90
14409;DHT22;7289;50.706;4.992;2023-07-13T03:33:54;14.60;99.90
14409;DHT22;7289;50.706;4.992;2023-07-13T03:36:27;14.70;99.90
14409;DHT22;7289;50.706;4.992;2023-07-13T03:39:00;14.70;99.90
14409;DHT22;7289;50.706;4.992;2023-07-13T03:41:37;14.70;99.90
14409;DHT22;7289;50.706;4.992;2023-07-13T03:44:06;14.70;99.90
14409;DHT22;7289;50.706;4.992;2023-07-13T03:46:35;14.70;99.90
14409;DHT22;7289;50.706;4.992;2023-07-13T03:49:05;14.70;99.90
14409;DHT22;7289;50.706;4.992;2023-07-13T03:51:35;14.80;99.90
14409;DHT22;7289;50.706;4.992;2023-07-13T03:54:04;14.80;99.90
14409;DHT22;7289;50.706;4.992;2023-07-13T03:56:33;14.90;99.90
14409;DHT22;7289;50.706;4.992;2023-07-13T03:59:03;14.80;99.90
14409;DHT22;7289;50.706;4.992;2023-07-13T04:01:32;14.80;99.90
14409;DHT22;7289;50.706;4.992;2023-07-13T04:04:00;14.80;99.90
14409;DHT22;7289;50.706;4.992;2023-07-13T04:06:33;14.90;99.90
14409;DHT22;7289;50.706;4.992;2023-07-13T04:09:04;14.90;99.90
14409;DHT22;7289;50.706;4.992;2023-07-13T04:11:33;14.90;99.90
14409;DHT22;7289;50.706;4.992;2023-07-13T04:14:03;15.00;99.90
14409;DHT22;7289;50.706;4.992;2023-07-13T04:16:33;15.00;99.90
14409;DHT22;7289;50.706;4.992;2023-07-13T04:19:02;15.00;99.90
14409;DHT22;7289;50.706;4.992;2023-07-13T04:21:31;15.10;99.90
14409;DHT22;7289;50.706;4.992;2023-07-13T04:23:59;15.10;99.90
14409;DHT22;7289;50.706;4.992;2023-07-13T04:26:29;15.10;99.90
14409;DHT22;7289;50.706;4.992;2023-07-13T04:28:58;15.20;99.90
14409;DHT22;7289;50.706;4.992;2023-07-13T04:31:26;15.30;99.90
14409;DHT22;7289;50.706;4.992;2023-07-13T04:33:55;15.40;99.90
14409;DHT22;7289;50.706;4.992;2023-07-13T04:36:24;15.50;99.90
14409;DHT22;7289;50.706;4.992;2023-07-13T04:38:54;15.60;99.90
14409;DHT22;7289;50.706;4.992;2023-07-13T04:41:22;15.70;99.90
14409;DHT22;7289;50.706;4.992;2023-07-13T04:43:52;15.80;99.90
14409;DHT22;7289;50.706;4.992;2023-07-13T04:46:23;16.00;99.90
14409;DHT22;7289;50.706;4.992;2023-07-13T04:48:52;16.20;99.90
14409;DHT22;7289;50.706;4.992;2023-07-13T04:51:21;16.20;99.90
14409;DHT22;7289;50.706;4.992;2023-07-13T04:53:50;16.30;99.90
14409;DHT22;7289;50.706;4.992;2023-07-13T04:56:24;16.40;99.90
14409;DHT22;7289;50.706;4.992;2023-07-13T04:58:54;16.40;99.90
14409;DHT22;7289;50.706;4.992;2023-07-13T05:01:23;16.50;99.90
14409;DHT22;7289;50.706;4.992;2023-07-13T05:03:52;16.50;99.90
14409;DHT22;7289;50.706;4.992;2023-07-13T05:06:22;16.60;99.90
14409;DHT22;7289;50.706;4.992;2023-07-13T05:08:50;16.60;99.90
14409;DHT22;7289;50.706;4.992;2023-07-13T05:11:19;16.60;99.90
14409;DHT22;7289;50.706;4.992;2023-07-13T05:13:47;16.60;99.90
14409;DHT22;7289;50.706;4.992;2023-07-13T05:16:17;16.70;99.90
14409;DHT22;7289;50.706;4.992;2023-07-13T05:18:45;16.80;99.90
14409;DHT22;7289;50.706;4.992;2023-07-13T05:21:14;16.80;99.90
14409;DHT22;7289;50.706;4.992;2023-07-13T05:23:42;16.90;99.90
14409;DHT22;7289;50.706;4.992;2023-07-13T05:26:11;16.90;99.90
14409;DHT22;7289;50.706;4.992;2023-07-13T05:28:39;16.90;99.90
14409;DHT22;7289;50.706;4.992;2023-07-13T05:31:10;17.10;99.90
14409;DHT22;7289;50.706;4.992;2023-07-13T05:33:40;17.20;99.90
14409;DHT22;7289;50.706;4.992;2023-07-13T05:36:08;17.30;99.90
14409;DHT22;7289;50.706;4.992;2023-07-13T05:38:37;17.40;99.90
14409;DHT22;7289;50.706;4.992;2023-07-13T05:41:05;17.50;99.90
14409;DHT22;7289;50.706;4.992;2023-07-13T05:43:34;17.60;99.90
14409;DHT22;7289;50.706;4.992;2023-07-13T05:46:03;17.70;99.90
14409;DHT22;7289;50.706;4.992;2023-07-13T05:48:31;17.80;99.90
14409;DHT22;7289;50.706;4.992;2023-07-13T05:51:01;17.90;99.90
14409;DHT22;7289;50.706;4.992;2023-07-13T05:53:29;17.90;99.90
14409;DHT22;7289;50.706;4.992;2023-07-13T05:55:59;17.90;99.90
14409;DHT22;7289;50.706;4.992;2023-07-13T05:58:29;18.00;99.90
14409;DHT22;7289;50.706;4.992;2023-07-13T06:01:02;18.00;99.90
14409;DHT22;7289;50.706;4.992;2023-07-13T06:03:32;17.90;99.90
14409;DHT22;7289;50.706;4.992;2023-07-13T06:06:01;18.00;99.90
14409;DHT22;7289;50.706;4.992;2023-07-13T06:08:30;18.20;99.90
14409;DHT22;7289;50.706;4.992;2023-07-13T06:11:03;18.20;99.90
14409;DHT22;7289;50.706;4.992;2023-07-13T06:13:32;18.10;99.90
14409;DHT22;7289;50.706;4.992;2023-07-13T06:16:02;18.30;99.90
14409;DHT22;7289;50.706;4.992;2023-07-13T06:18:32;18.30;99.90
14409;DHT22;7289;50.706;4.992;2023-07-13T06:21:06;18.50;99.90
14409;DHT22;7289;50.706;4.992;2023-07-13T06:23:35;18.50;99.90
14409;DHT22;7289;50.706;4.992;2023-07-13T06:26:04;18.60;99.90
14409;DHT22;7289;50.706;4.992;2023-07-13T06:28:33;18.60;99.90
14409;DHT22;7289;50.706;4.992;2023-07-13T06:31:04;18.50;99.90
14409;DHT22;7289;50.706;4.992;2023-07-13T06:33:32;18.40;99.90
14409;DHT22;7289;50.706;4.992;2023-07-13T06:36:03;18.40;99.90
14409;DHT22;7289;50.706;4.992;2023-07-13T06:38:34;18.50;99.90
14409;DHT22;7289;50.706;4.992;2023-07-13T06:41:04;18.50;99.90
14409;DHT22;7289;50.706;4.992;2023-07-13T06:43:32;18.70;99.90
14409;DHT22;7289;50.706;4.992;2023-07-13T06:46:01;18.80;99.60
14409;DHT22;7289;50.706;4.992;2023-07-13T06:48:29;18.80;99.70
14409;DHT22;7289;50.706;4.992;2023-07-13T06:50:58;18.90;99.20
14409;DHT22;7289;50.706;4.992;2023-07-13T06:53:27;19.00;99.30
14409;DHT22;7289;50.706;4.992;2023-07-13T06:55:56;19.10;99.10
14409;DHT22;7289;50.706;4.992;2023-07-13T06:58:24;19.20;98.70
14409;DHT22;7289;50.706;4.992;2023-07-13T07:00:52;19.30;98.80
14409;DHT22;7289;50.706;4.992;2023-07-13T07:03:21;19.30;98.60
14409;DHT22;7289;50.706;4.992;2023-07-13T07:05:50;19.40;98.50
14409;DHT22;7289;50.706;4.992;2023-07-13T07:08:18;19.50;98.20
14409;DHT22;7289;50.706;4.992;2023-07-13T07:10:48;19.60;98.00
14409;DHT22;7289;50.706;4.992;2023-07-13T07:13:21;19.80;97.80
14409;DHT22;7289;50.706;4.992;2023-07-13T07:15:50;20.00;97.60
14409;DHT22;7289;50.706;4.992;2023-07-13T07:18:19;20.10;97.40
14409;DHT22;7289;50.706;4.992;2023-07-13T07:20:48;20.10;97.30
14409;DHT22;7289;50.706;4.992;2023-07-13T07:23:18;20.10;97.10
14409;DHT22;7289;50.706;4.992;2023-07-13T07:25:48;20.10;96.90
14409;DHT22;7289;50.706;4.992;2023-07-13T07:28:16;20.30;96.70
14409;DHT22;7289;50.706;4.992;2023-07-13T07:30:52;20.20;96.60
14409;DHT22;7289;50.706;4.992;2023-07-13T07:33:41;20.20;96.80
14409;DHT22;7289;50.706;4.992;2023-07-13T07:36:10;20.40;96.50
14409;DHT22;7289;50.706;4.992;2023-07-13T07:38:41;20.80;95.70
14409;DHT22;7289;50.706;4.992;2023-07-13T07:41:13;20.80;95.40
14409;DHT22;7289;50.706;4.992;2023-07-13T07:43:44;20.80;95.30
14409;DHT22;7289;50.706;4.992;2023-07-13T07:46:12;21.00;95.60
14409;DHT22;7289;50.706;4.992;2023-07-13T07:48:41;21.20;95.90
14409;DHT22;7289;50.706;4.992;2023-07-13T07:51:10;21.30;94.40
14409;DHT22;7289;50.706;4.992;2023-07-13T07:53:38;21.40;94.70
14409;DHT22;7289;50.706;4.992;2023-07-13T07:56:06;21.40;94.20
14409;DHT22;7289;50.706;4.992;2023-07-13T07:58:39;21.30;94.30
14409;DHT22;7289;50.706;4.992;2023-07-13T08:01:12;21.50;94.40
14409;DHT22;7289;50.706;4.992;2023-07-13T08:03:44;21.60;94.20
14409;DHT22;7289;50.706;4.992;2023-07-13T08:06:15;21.80;94.00
14409;DHT22;7289;50.706;4.992;2023-07-13T08:09:04;22.00;93.50
14409;DHT22;7289;50.706;4.992;2023-07-13T08:11:33;22.30;93.20
14409;DHT22;7289;50.706;4.992;2023-07-13T08:14:06;22.30;93.10
14409;DHT22;7289;50.706;4.992;2023-07-13T08:16:34;22.20;92.60
14409;DHT22;7289;50.706;4.992;2023-07-13T08:19:03;22.30;92.70
14409;DHT22;7289;50.706;4.992;2023-07-13T08:21:33;22.10;92.80
14409;DHT22;7289;50.706;4.992;2023-07-13T08:24:01;22.30;93.10
14409;DHT22;7289;50.706;4.992;2023-07-13T08:26:29;22.10;93.10
14409;DHT22;7289;50.706;4.992;2023-07-13T08:28:58;22.20;92.40
14409;DHT22;7289;50.706;4.992;2023-07-13T08:31:27;22.30;92.40
14409;DHT22;7289;50.706;4.992;2023-07-13T08:33:56;22.50;92.40
14409;DHT22;7289;50.706;4.992;2023-07-13T08:36:25;22.60;92.20
14409;DHT22;7289;50.706;4.992;2023-07-13T08:38:54;22.70;92.50
14409;DHT22;7289;50.706;4.992;2023-07-13T08:41:23;22.80;91.90
14409;DHT22;7289;50.706;4.992;2023-07-13T08:43:56;22.70;91.50
14409;DHT22;7289;50.706;4.992;2023-07-13T08:46:32;22.60;91.60
14409;DHT22;7289;50.706;4.992;2023-07-13T08:49:03;22.50;92.30
14409;DHT22;7289;50.706;4.992;2023-07-13T08:51:40;22.70;92.00
14409;DHT22;7289;50.706;4.992;2023-07-13T08:54:23;22.70;90.90
14409;DHT22;7289;50.706;4.992;2023-07-13T08:56:54;22.60;91.40
14409;DHT22;7289;50.706;4.992;2023-07-13T08:59:26;22.80;91.20
14409;DHT22;7289;50.706;4.992;2023-07-13T09:02:17;23.00;91.30
14409;DHT22;7289;50.706;4.992;2023-07-13T09:04:50;23.30;91.10
14409;DHT22;7289;50.706;4.992;2023-07-13T09:07:29;23.10;90.10
14409;DHT22;7289;50.706;4.992;2023-07-13T09:10:05;23.20;90.50
14409;DHT22;7289;50.706;4.992;2023-07-13T09:12:44;23.10;90.10
14409;DHT22;7289;50.706;4.992;2023-07-13T09:15:23;23.10;90.70
14409;DHT22;7289;50.706;4.992;2023-07-13T09:17:58;23.10;90.10
14409;DHT22;7289;50.706;4.992;2023-07-13T09:20:30;22.90;90.10
14409;DHT22;7289;50.706;4.992;2023-07-13T09:23:03;23.10;90.30
14409;DHT22;7289;50.706;4.992;2023-07-13T09:25:34;23.00;90.60
14409;DHT22;7289;50.706;4.992;2023-07-13T09:28:11;23.10;90.60
14409;DHT22;7289;50.706;4.992;2023-07-13T09:30:49;23.00;90.70
14409;DHT22;7289;50.706;4.992;2023-07-13T09:33:22;23.10;90.70
14409;DHT22;7289;50.706;4.992;2023-07-13T09:35:50;23.00;90.50
14409;DHT22;7289;50.706;4.992;2023-07-13T09:38:21;23.10;90.20
14409;DHT22;7289;50.706;4.992;2023-07-13T09:41:04;23.30;90.30
14409;DHT22;7289;50.706;4.992;2023-07-13T09:43:38;23.40;90.10
14409;DHT22;7289;50.706;4.992;2023-07-13T09:46:20;23.40;90.30
14409;DHT22;7289;50.706;4.992;2023-07-13T09:48:50;23.50;90.20
14409;DHT22;7289;50.706;4.992;2023-07-13T09:51:19;23.40;89.70
14409;DHT22;7289;50.706;4.992;2023-07-13T09:53:48;23.40;88.70
14409;DHT22;7289;50.706;4.992;2023-07-13T09:56:21;23.20;89.50
14409;DHT22;7289;50.706;4.992;2023-07-13T09:58:50;23.00;89.40
14409;DHT22;7289;50.706;4.992;2023-07-13T10:01:32;22.90;89.60
14409;DHT22;7289;50.706;4.992;2023-07-13T10:04:10;23.00;90.30
14409;DHT22;7289;50.706;4.992;2023-07-13T10:06:40;23.10;90.00
14409;DHT22;7289;50.706;4.992;2023-07-13T10:09:15;23.20;90.10
14409;DHT22;7289;50.706;4.992;2023-07-13T10:11:43;23.20;89.90
14409;DHT22;7289;50.706;4.992;2023-07-13T10:14:15;23.30;89.40
14409;DHT22;7289;50.706;4.992;2023-07-13T10:16:45;23.30;89.00
14409;DHT22;7289;50.706;4.992;2023-07-13T10:19:19;23.40;88.10
14409;DHT22;7289;50.706;4.992;2023-07-13T10:21:53;23.40;87.70
14409;DHT22;7289;50.706;4.992;2023-07-13T10:24:23;23.10;88.90
14409;DHT22;7289;50.706;4.992;2023-07-13T10:26:56;23.10;90.60
14409;DHT22;7289;50.706;4.992;2023-07-13T10:29:28;23.30;90.20
14409;DHT22;7289;50.706;4.992;2023-07-13T10:31:57;23.40;89.30
14409;DHT22;7289;50.706;4.992;2023-07-13T10:34:27;23.70;88.00
14409;DHT22;7289;50.706;4.992;2023-07-13T10:36:58;24.00;87.80
14409;DHT22;7289;50.706;4.992;2023-07-13T10:39:28;24.20;86.70
14409;DHT22;7289;50.706;4.992;2023-07-13T10:42:00;24.30;86.50
14409;DHT22;7289;50.706;4.992;2023-07-13T10:44:31;24.50;85.60
14409;DHT22;7289;50.706;4.992;2023-07-13T10:47:01;24.50;84.80
14409;DHT22;7289;50.706;4.992;2023-07-13T10:49:33;24.50;84.30
14409;DHT22;7289;50.706;4.992;2023-07-13T10:52:03;24.50;86.40
14409;DHT22;7289;50.706;4.992;2023-07-13T10:54:32;24.50;85.00
14409;DHT22;7289;50.706;4.992;2023-07-13T10:57:17;24.50;84.00
14409;DHT22;7289;50.706;4.992;2023-07-13T10:59:48;24.50;83.80
14409;DHT22;7289;50.706;4.992;2023-07-13T11:02:26;24.40;82.10
14409;DHT22;7289;50.706;4.992;2023-07-13T11:04:57;24.20;83.40
14409;DHT22;7289;50.706;4.992;2023-07-13T11:07:28;24.10;84.20
14409;DHT22;7289;50.706;4.992;2023-07-13T11:09:58;24.10;83.60
14409;DHT22;7289;50.706;4.992;2023-07-13T11:12:49;24.10;83.90
14409;DHT22;7289;50.706;4.992;2023-07-13T11:15:32;24.10;83.70
14409;DHT22;7289;50.706;4.992;2023-07-13T11:18:04;23.90;84.20
14409;DHT22;7289;50.706;4.992;2023-07-13T11:20:38;23.80;84.90
14409;DHT22;7289;50.706;4.992;2023-07-13T11:23:18;23.50;85.30
14409;DHT22;7289;50.706;4.992;2023-07-13T11:25:47;23.30;85.90
14409;DHT22;7289;50.706;4.992;2023-07-13T11:28:22;23.30;85.80
14409;DHT22;7289;50.706;4.992;2023-07-13T11:31:14;23.40;85.20
14409;DHT22;7289;50.706;4.992;2023-07-13T11:33:53;23.50;85.00
14409;DHT22;7289;50.706;4.992;2023-07-13T11:36:35;23.50;84.90
14409;DHT22;7289;50.706;4.992;2023-07-13T11:39:16;23.60;85.00
14409;DHT22;7289;50.706;4.992;2023-07-13T11:41:50;23.80;84.20
14409;DHT22;7289;50.706;4.992;2023-07-13T11:44:21;23.90;82.40
14409;DHT22;7289;50.706;4.992;2023-07-13T11:46:51;24.00;83.20
14409;DHT22;7289;50.706;4.992;2023-07-13T11:49:24;23.90;83.50
14409;DHT22;7289;50.706;4.992;2023-07-13T11:51:56;24.30;82.30
14409;DHT22;7289;50.706;4.992;2023-07-13T11:54:27;24.30;81.00
14409;DHT22;7289;50.706;4.992;2023-07-13T11:56:58;24.40;81.60
14409;DHT22;7289;50.706;4.992;2023-07-13T11:59:30;24.50;80.60
14409;DHT22;7289;50.706;4.992;2023-07-13T12:02:00;24.80;82.00
14409;DHT22;7289;50.706;4.992;2023-07-13T12:04:32;25.10;78.20
14409;DHT22;7289;50.706;4.992;2023-07-13T12:07:11;25.10;78.70
14409;DHT22;7289;50.706;4.992;2023-07-13T12:09:43;25.10;79.60
14409;DHT22;7289;50.706;4.992;2023-07-13T12:12:12;25.10;79.80
14409;DHT22;7289;50.706;4.992;2023-07-13T12:14:41;25.30;77.70
14409;DHT22;7289;50.706;4.992;2023-07-13T12:17:15;25.50;78.00
14409;DHT22;7289;50.706;4.992;2023-07-13T12:19:44;25.50;76.60
14409;DHT22;7289;50.706;4.992;2023-07-13T12:22:16;25.70;77.70
14409;DHT22;7289;50.706;4.992;2023-07-13T12:24:45;25.90;75.20
14409;DHT22;7289;50.706;4.992;2023-07-13T12:27:20;25.80;75.10
14409;DHT22;7289;50.706;4.992;2023-07-13T12:29:51;25.80;75.80
14409;DHT22;7289;50.706;4.992;2023-07-13T12:32:20;25.70;76.50
14409;DHT22;7289;50.706;4.992;2023-07-13T12:34:52;25.60;76.00
14409;DHT22;7289;50.706;4.992;2023-07-13T12:37:23;25.70;75.60
14409;DHT22;7289;50.706;4.992;2023-07-13T12:39:52;25.80;74.90
14409;DHT22;7289;50.706;4.992;2023-07-13T12:42:23;25.70;75.40
14409;DHT22;7289;50.706;4.992;2023-07-13T12:44:58;25.70;76.90
14409;DHT22;7289;50.706;4.992;2023-07-13T12:47:28;25.90;76.60
14409;DHT22;7289;50.706;4.992;2023-07-13T12:49:59;25.90;77.30
14409;DHT22;7289;50.706;4.992;2023-07-13T12:52:31;26.00;76.10
14409;DHT22;7289;50.706;4.992;2023-07-13T12:55:05;26.30;75.80
14409;DHT22;7289;50.706;4.992;2023-07-13T12:57:41;26.20;75.80
14409;DHT22;7289;50.706;4.992;2023-07-13T13:00:24;26.10;75.40
14409;DHT22;7289;50.706;4.992;2023-07-13T13:02:54;26.20;75.50
14409;DHT22;7289;50.706;4.992;2023-07-13T13:05:43;26.30;75.90
14409;DHT22;7289;50.706;4.992;2023-07-13T13:08:14;26.00;75.70
14409;DHT22;7289;50.706;4.992;2023-07-13T13:10:42;25.70;75.30
14409;DHT22;7289;50.706;4.992;2023-07-13T13:13:12;25.40;75.90
14409;DHT22;7289;50.706;4.992;2023-07-13T13:15:41;25.20;75.70
14409;DHT22;7289;50.706;4.992;2023-07-13T13:18:16;25.40;76.60
14409;DHT22;7289;50.706;4.992;2023-07-13T13:20:45;25.60;76.40
14409;DHT22;7289;50.706;4.992;2023-07-13T13:23:17;25.90;75.00
14409;DHT22;7289;50.706;4.992;2023-07-13T13:25:46;26.20;73.00
14409;DHT22;7289;50.706;4.992;2023-07-13T13:28:17;26.40;75.50
14409;DHT22;7289;50.706;4.992;2023-07-13T13:30:47;26.60;74.60
14409;DHT22;7289;50.706;4.992;2023-07-13T13:33:18;26.30;71.50
14409;DHT22;7289;50.706;4.992;2023-07-13T13:35:47;26.10;72.80
14409;DHT22;7289;50.706;4.992;2023-07-13T13:38:19;26.30;74.60
14409;DHT22;7289;50.706;4.992;2023-07-13T13:40:48;26.60;71.60
14409;DHT22;7289;50.706;4.992;2023-07-13T13:43:18;26.70;72.00
14409;DHT22;7289;50.706;4.992;2023-07-13T13:45:47;26.70;72.70
14409;DHT22;7289;50.706;4.992;2023-07-13T13:48:17;26.50;72.40
14409;DHT22;7289;50.706;4.992;2023-07-13T13:50:47;26.10;72.20
14409;DHT22;7289;50.706;4.992;2023-07-13T13:53:17;25.60;73.70
14409;DHT22;7289;50.706;4.992;2023-07-13T13:55:45;25.40;73.20
14409;DHT22;7289;50.706;4.992;2023-07-13T13:58:14;25.00;73.60
14409;DHT22;7289;50.706;4.992;2023-07-13T14:00:42;24.90;74.20
14409;DHT22;7289;50.706;4.992;2023-07-13T14:03:15;24.60;74.20
14409;DHT22;7289;50.706;4.992;2023-07-13T14:05:45;24.20;75.80
14409;DHT22;7289;50.706;4.992;2023-07-13T14:08:18;23.90;77.50
14409;DHT22;7289;50.706;4.992;2023-07-13T14:10:50;23.90;80.10
14409;DHT22;7289;50.706;4.992;2023-07-13T14:13:22;23.50;82.90
14409;DHT22;7289;50.706;4.992;2023-07-13T14:15:52;23.30;83.70
14409;DHT22;7289;50.706;4.992;2023-07-13T14:18:22;23.60;83.30
14409;DHT22;7289;50.706;4.992;2023-07-13T14:20:51;23.60;82.50
14409;DHT22;7289;50.706;4.992;2023-07-13T14:23:21;23.40;83.40
14409;DHT22;7289;50.706;4.992;2023-07-13T14:25:50;23.40;83.70
14409;DHT22;7289;50.706;4.992;2023-07-13T14:28:23;23.50;84.10
14409;DHT22;7289;50.706;4.992;2023-07-13T14:30:52;23.80;84.00
14409;DHT22;7289;50.706;4.992;2023-07-13T14:33:21;23.90;82.80
14409;DHT22;7289;50.706;4.992;2023-07-13T14:35:50;24.30;83.60
14409;DHT22;7289;50.706;4.992;2023-07-13T14:38:21;24.40;81.90
14409;DHT22;7289;50.706;4.992;2023-07-13T14:40:49;24.80;82.20
14409;DHT22;7289;50.706;4.992;2023-07-13T14:43:18;25.10;79.10
14409;DHT22;7289;50.706;4.992;2023-07-13T14:45:51;25.30;80.90
14409;DHT22;7289;50.706;4.992;2023-07-13T14:48:21;25.60;80.40
14409;DHT22;7289;50.706;4.992;2023-07-13T14:50:54;25.90;78.40
14409;DHT22;7289;50.706;4.992;2023-07-13T14:53:25;25.80;80.10
14409;DHT22;7289;50.706;4.992;2023-07-13T14:55:54;26.00;76.20
14409;DHT22;7289;50.706;4.992;2023-07-13T14:58:23;25.80;77.90
14409;DHT22;7289;50.706;4.992;2023-07-13T15:00:51;25.80;77.10
14409;DHT22;7289;50.706;4.992;2023-07-13T15:03:24;25.80;77.70
14409;DHT22;7289;50.706;4.992;2023-07-13T15:05:53;25.60;77.40
14409;DHT22;7289;50.706;4.992;2023-07-13T15:08:21;25.70;78.60
14409;DHT22;7289;50.706;4.992;2023-07-13T15:10:52;26.10;76.80
14409;DHT22;7289;50.706;4.992;2023-07-13T15:13:21;26.10;76.40
14409;DHT22;7289;50.706;4.992;2023-07-13T15:15:51;25.70;76.20
14409;DHT22;7289;50.706;4.992;2023-07-13T15:18:22;25.30;76.60
14409;DHT22;7289;50.706;4.992;2023-07-13T15:20:52;25.10;76.60
14409;DHT22;7289;50.706;4.992;2023-07-13T15:23:23;25.10;78.80
14409;DHT22;7289;50.706;4.992;2023-07-13T15:25:54;25.40;78.80
14409;DHT22;7289;50.706;4.992;2023-07-13T15:28:22;25.60;75.70
14409;DHT22;7289;50.706;4.992;2023-07-13T15:30:51;25.70;75.50
14409;DHT22;7289;50.706;4.992;2023-07-13T15:33:22;25.80;76.10
14409;DHT22;7289;50.706;4.992;2023-07-13T15:35:52;25.80;74.50
14409;DHT22;7289;50.706;4.992;2023-07-13T15:38:23;25.80;74.70
14409;DHT22;7289;50.706;4.992;2023-07-13T15:40:54;25.90;74.80
14409;DHT22;7289;50.706;4.992;2023-07-13T15:43:23;25.50;74.10
14409;DHT22;7289;50.706;4.992;2023-07-13T15:45:52;25.40;74.50
14409;DHT22;7289;50.706;4.992;2023-07-13T15:48:21;25.30;75.30
14409;DHT22;7289;50.706;4.992;2023-07-13T15:50:52;25.10;74.70
14409;DHT22;7289;50.706;4.992;2023-07-13T15:53:24;25.00;74.90
14409;DHT22;7289;50.706;4.992;2023-07-13T15:55:54;24.80;76.50
14409;DHT22;7289;50.706;4.992;2023-07-13T15:58:22;25.10;77.20
14409;DHT22;7289;50.706;4.992;2023-07-13T16:00:53;25.50;76.60
14409;DHT22;7289;50.706;4.992;2023-07-13T16:03:21;25.80;75.80
14409;DHT22;7289;50.706;4.992;2023-07-13T16:05:51;25.90;75.00
14409;DHT22;7289;50.706;4.992;2023-07-13T16:08:24;26.00;75.90